Tiempo atmosférico en la estación meteorológica de Valleseco, Las Palmas (900 m.)



Fecha
DESCASC
Temp. máxima en grados centígrados (hora)
DESCASC
Temp. mínima en grados centígrados (hora)
DESCASC
Temp. media en grados centígrados
DESCASC
Racha de viento máxima en m/sg (hora)
DESCASC
Velocidad máxima media en intervalos de 10 minutos(hora)
DESCASC
Precipitaciones diarias en mm
DESCASC
Precipitaciones de 00:00 a 06:00 en mm
DESCASC
Precipitaciones de 06:00 a 12:00 en mm
DESCASC
Precipitaciones de 12:00 a 18:00 en mm
DESCASC
Precipitaciones de 18:00 a 24:00 en mm
DESCASC
22-01-2020 13.4 (11:20) 6.2 (04:30) 9.8 5.28 (12:50) 2.78 (12:50) 0.6 0 0 0.6 0
21-01-2020 10.5 (13:20) 6.5 (23:50) 8.5 8.33 (11:20) 4.44 (11:20) 1.4 0.8 0.4 0 0.2
20-01-2020 11.4 (00:40) 7.9 (07:30) 9.6 9.17 (23:59) 5.28 (20:40) 5.8 3.4 1.4 0.2 0.8
19-01-2020 20.5 (13:40) 9.2 (00:00) 14.8 10 (00:30) 7.5 (00:30) 0 0 0 0 0
18-01-2020 17.9 (14:30) 11.8 (00:00) 14.8 15.28 (07:40) 10.28 (07:30) 0 0 0 0 0
17-01-2020 16.1 (14:20) 9 (00:00) 12.6 12.5 (09:50) 9.17 (10:00) 0 0 0 0 0
16-01-2020 17.1 (14:20) 8.2 (00:00) 12.7 8.61 (22:30) 6.39 (22:50) 0 0 0 0 0
15-01-2020 16.5 (15:40) 8.4 (00:00) 12.4 8.89 (12:30) 5.83 (20:30) 0 0 0 0 0
14-01-2020 16.9 (12:00) 9 (00:00) 12.9 8.33 (11:20) 4.72 (11:20) 0 0 0 0 0
13-01-2020 17.1 (15:40) 8.2 (00:00) 12.7 12.22 (04:20) 8.61 (04:20) 0 0 0 0 0
12-01-2020 13 (14:40) 8.5 (00:00) 10.8 13.33 (14:30) 9.17 (14:30) 0.6 0.6 0 0 0
11-01-2020 11.6 (12:50) 8.6 (00:00) 10.1 7.22 (17:20) 3.33 (17:20) 3.4 0.4 0.2 1.6 1.2
10-01-2020 12.1 (13:50) 9.7 (00:00) 10.9 10.56 (12:50) 5 (12:00) 10 1 7.2 1.4 0.4
09-01-2020 12.3 (15:00) 9 (00:00) 10.7 7.78 (19:40) 4.17 (17:30) 0.6 0 0.2 0 0.4
08-01-2020 13.5 (16:00) 9.2 (00:00) 11.3 8.33 (22:50) 4.17 (22:40) 1 0 0.8 0 0.2
07-01-2020 14.4 (16:10) 8.7 (00:00) 11.5 9.72 (02:20) 5.28 (01:20) 1 0.8 0.2 0 0
06-01-2020 13.1 (13:10) 9.1 (00:00) 11.1 11.11 (21:10) 5.56 (20:40) 0.4 0 0.2 0 0.2
05-01-2020 16.4 (13:40) 8.6 (00:00) 12.5 7.5 (12:50) 4.44 (11:30) 0 0 0 0 0
04-01-2020 16.8 (13:30) 8.9 (00:00) 12.8 12.78 (00:20) 9.17 (05:20) 0 0 0 0 0
03-01-2020 14.2 (13:40) 8.7 (00:00) 11.4 16.39 (04:50) 12.78 (04:30) 0 0 0 0 0
02-01-2020 13.9 (15:20) 8.2 (00:00) 11 16.11 (01:40) 11.67 (01:40) 0 0 0 0 0
01-01-2020 15.6 (13:30) 9 (00:00) 12.3 17.22 (01:30) 12.78 (01:30) 0 0 0 0 0
31-12-2019 20.4 (12:00) 11.3 (00:00) 15.8 16.94 (23:59) 11.67 (23:59) 0 0 0 0 0
30-12-2019 -- (--) -- (--) -- -- (--) -- (--) -- 0 0 -- 0
29-12-2019 21.1 (13:50) 14.5 (00:00) 17.8 14.17 (06:40) 10.83 (09:50) 0 0 0 0 0
28-12-2019 22.2 (12:30) 15 (00:00) 18.6 13.06 (09:40) 8.89 (11:10) 0 0 0 0 0
27-12-2019 21.7 (15:30) 13.7 (00:00) 17.7 13.61 (10:20) 10.28 (10:40) 0 0 0 0 0
26-12-2019 19.7 (14:40) 13.5 (00:00) 16.6 13.33 (14:50) 8.33 (05:00) 0 0 0 0 0
25-12-2019 22.4 (10:50) 14.3 (00:00) 18.3 10.28 (00:20) 6.94 (00:20) 0 0 0 0 0

Gráficas

Temp. máximas Temp. mínimas Temp. medias Precipitaciones Rachas de viento máximas Velocidades máximas media en intervalos de 10 minutos

Datos horarios

Fecha y hora oficial Temperatura (ºC) Velocidad del viento (km/h) Dirección del viento Racha (km/h) Dirección de racha Precipitación (mm) Presión (hPa) Tendencia (hPa) Humedad (%)
2020-01-23 23:00:00 8.6 3 Noroeste 5 Norte 0 -- -- 96
2020-01-23 22:00:00 8.5 0 Calma 5 Sudoeste 0 -- -- 95
2020-01-23 21:00:00 8.6 2 Sudoeste 5 Noroeste 0 -- -- 95
2020-01-23 20:00:00 8.6 4 Este 9 Sudeste 0 -- -- 94
2020-01-23 19:00:00 8.7 6 Sudeste 7 Sudeste 0 -- -- 91
2020-01-23 18:00:00 10 3 Sudeste 4 Sudeste 0 -- -- 88
2020-01-23 17:00:00 10.2 0 Calma 9 Norte 0 -- -- 88
2020-01-23 16:00:00 10.7 4 Norte 8 Noroeste 0 -- -- 87
2020-01-23 15:00:00 11.1 5 Noroeste 14 Noroeste 0 -- -- 86
2020-01-23 14:00:00 11.5 6 Norte 15 Noroeste 0 -- -- 82
2020-01-23 13:00:00 12.3 7 Noroeste 15 Noroeste 0 -- -- 81
2020-01-23 12:00:00 12.3 7 Norte 14 Noroeste 0 -- -- 82
2020-01-23 11:00:00 13.1 7 Noroeste 15 Noroeste 0 -- -- 73
2020-01-23 10:00:00 10.5 5 Norte 9 Oeste 0 -- -- 75
2020-01-23 09:00:00 9.1 4 Noroeste 10 Noroeste 0 -- -- 73
2020-01-23 08:00:00 8.4 4 Oeste 10 Noroeste 0 -- -- 67
2020-01-23 07:00:00 8.2 0 Calma 5 Sudeste 0 -- -- 67
2020-01-23 06:00:00 8.6 3 Sudoeste 7 Oeste 0 -- -- 64
2020-01-23 05:00:00 8.4 2 Nordeste 10 Sudeste 0 -- -- 64
2020-01-23 04:00:00 7.3 9 Sudeste 13 Sudeste 0 -- -- 72
2020-01-23 03:00:00 8.4 4 Oeste 13 Oeste 0 -- -- 66
2020-01-23 02:00:00 7.6 8 Oeste 15 Sudoeste 0 -- -- 71
2020-01-23 01:00:00 7.9 8 Oeste 16 Oeste 0 -- -- 70
2020-01-23 00:00:00 8.3 9 Noroeste 15 Oeste 0 -- -- 69
2020-01-22 23:00:00 6.9 5 Sudoeste 15 Sudoeste 0 -- -- 78
2020-01-22 22:00:00 7.2 5 Sudoeste 13 Oeste 0 -- -- 76
2020-01-22 21:00:00 7.4 4 Sur 8 Sudeste 0 -- -- 92
2020-01-22 20:00:00 7.3 7 Sudeste 9 Sudeste 0 -- -- 95
2020-01-22 19:00:00 7.9 2 Sudoeste 11 Noroeste 0 -- -- 90
2020-01-22 18:00:00 10.9 7 Noroeste 13 Noroeste 0 -- -- 82
2020-01-22 17:00:00 10.6 3 Norte 6 Noroeste 0 -- -- 87
2020-01-22 16:00:00 10.3 2 Este 4 Sudeste 0.2 -- -- 90
2020-01-22 15:00:00 9.5 2 Nordeste 10 Norte 0.4 -- -- 92
2020-01-22 14:00:00 10.1 5 Norte 14 Norte 0 -- -- 86
2020-01-22 13:00:00 11.4 8 Norte 19 Norte 0 -- -- 79
2020-01-22 12:00:00 12.1 6 Norte 14 Norte 0 -- -- 62
2020-01-22 11:00:00 13 4 Noroeste 9 Noroeste 0 -- -- 45
2020-01-22 10:00:00 9.9 3 Oeste 6 Sudoeste 0 -- -- 58
2020-01-22 09:00:00 8.5 4 Sudoeste 8 Sudoeste 0 -- -- 63
2020-01-22 08:00:00 6.9 4 Oeste 8 Oeste 0 -- -- 65
2020-01-22 07:00:00 7.1 4 Oeste 8 Sudoeste 0 -- -- 67
2020-01-22 06:00:00 6.2 4 Sudoeste 9 Noroeste 0 -- -- 81
2020-01-22 05:00:00 6.6 7 Noroeste 9 Norte 0 -- -- 89
2020-01-22 04:00:00 7.5 3 Sudoeste 8 Sudoeste 0 -- -- 83
2020-01-22 03:00:00 6.5 4 Sudoeste 10 Oeste 0 -- -- 89
2020-01-22 02:00:00 6.6 5 Oeste 9 Sudoeste 0 -- -- 93
2020-01-22 01:00:00 6.7 4 Oeste 9 Oeste 0 -- -- 95
2020-01-22 00:00:00 6.5 4 Sudoeste 12 Oeste 0 -- -- 96
2020-01-21 23:00:00 7.1 8 Oeste 16 Oeste 0 -- -- 97
2020-01-21 22:00:00 7.5 9 Oeste 18 Oeste 0 -- -- 96
2020-01-21 21:00:00 7.1 10 Oeste 16 Sudoeste 0 -- -- 97
2020-01-21 20:00:00 7.3 8 Oeste 15 Noroeste 0 -- -- 98
2020-01-21 19:00:00 7.9 8 Noroeste 16 Norte 0.2 -- -- 96
2020-01-21 18:00:00 8 7 Noroeste 19 Norte 0 -- -- 88
2020-01-21 17:00:00 8.4 12 Noroeste 19 Noroeste 0 -- -- 91
2020-01-21 16:00:00 9.1 10 Noroeste 19 Noroeste 0 -- -- 86
2020-01-21 15:00:00 9.2 9 Noroeste 17 Oeste 0 -- -- 85
2020-01-21 14:00:00 10.2 8 Noroeste 20 Norte 0 -- -- 77
2020-01-21 13:00:00 9.9 8 Noroeste 17 Oeste 0 -- -- 87
2020-01-21 12:00:00 9 6 Noroeste 30 Noroeste 0 -- -- 97
2020-01-21 11:00:00 8 14 Norte 25 Norte 0.2 -- -- 95
2020-01-21 10:00:00 8.1 13 Oeste 22 Oeste 0 -- -- 92
2020-01-21 09:00:00 7.4 11 Noroeste 23 Oeste 0 -- -- 90
2020-01-21 08:00:00 6.9 11 Noroeste 23 Oeste 0 -- -- 93
2020-01-21 07:00:00 6.9 14 Oeste 23 Oeste 0.2 -- -- 98
2020-01-21 06:00:00 7.1 14 Oeste 23 Oeste 0 -- -- 99
2020-01-21 05:00:00 7.5 13 Oeste 26 Noroeste 0 -- -- 99
2020-01-21 04:00:00 7.2 14 Noroeste 29 Noroeste 0 -- -- 99
2020-01-21 03:00:00 7.3 10 Noroeste 17 Norte 0.2 -- -- 100
2020-01-21 02:00:00 7.4 10 Noroeste 23 Noroeste 0 -- -- 100
2020-01-21 01:00:00 7.9 9 Noroeste 26 Norte 0.6 -- -- 99
2020-01-21 00:00:00 8.3 12 Noroeste 33 Noroeste 0.4 -- -- 99
2020-01-20 23:00:00 8.1 8 Noroeste 28 Norte 0.4 -- -- 98
2020-01-20 22:00:00 8.4 9 Noroeste 25 Noroeste 0 -- -- 89
2020-01-20 21:00:00 8.4 15 Noroeste 32 Norte 0 -- -- 95
2020-01-20 20:00:00 8.3 11 Noroeste 32 Norte 0 -- -- 91
2020-01-20 19:00:00 8.5 14 Noroeste 28 Norte 0 -- -- 95
2020-01-20 18:00:00 9.2 13 Norte 26 Norte 0 -- -- 95
2020-01-20 17:00:00 9.5 13 Noroeste 25 Norte 0 -- -- 95
2020-01-20 16:00:00 9.8 14 Norte 26 Noroeste 0 -- -- 95
2020-01-20 15:00:00 10.3 10 Noroeste 23 Noroeste 0 -- -- 94
2020-01-20 14:00:00 10.4 12 Noroeste 23 Noroeste 0 -- -- 96
2020-01-20 13:00:00 10.7 8 Noroeste 24 Noroeste 0.2 -- -- 98
2020-01-20 12:00:00 9.8 9 Noroeste 27 Norte 0.4 -- -- 99
2020-01-20 11:00:00 9.6 10 Noroeste 20 Noroeste 0.4 -- -- 99
2020-01-20 10:00:00 8.9 9 Noroeste 31 Noroeste 0.2 -- -- 99
2020-01-20 09:00:00 8.4 11 Noroeste 24 Noroeste 0.4 -- -- 99
2020-01-20 08:00:00 7.9 8 Noroeste 22 Norte 0 -- -- 99
2020-01-20 07:00:00 8.3 11 Noroeste 20 Oeste 0 -- -- 99
2020-01-20 06:00:00 8.3 9 Noroeste 26 Norte 0 -- -- 99
2020-01-20 05:00:00 9.1 7 Noroeste 19 Noroeste 0 -- -- 99
2020-01-20 04:00:00 9.6 7 Noroeste 18 Noroeste 0 -- -- 99
2020-01-20 03:00:00 9.9 7 Noroeste 22 Norte 0 -- -- 99
2020-01-20 02:00:00 10.5 7 Norte 22 Noroeste 1.2 -- -- 98
2020-01-20 01:00:00 11.1 9 Norte 24 Norte 2.2 -- -- 98
2020-01-20 00:00:00 11 3 Oeste 13 Nordeste 0 -- -- 96
2020-01-19 23:00:00 10.9 4 Sudeste 17 Sur 0 -- -- 95
2020-01-19 22:00:00 10 10 Este 20 Sudeste 0 -- -- 97
2020-01-19 21:00:00 9.5 8 Sudeste 14 Sudeste 0 -- -- 98
2020-01-19 20:00:00 10 10 Sudeste 22 Este 0 -- -- 97
2020-01-19 19:00:00 10.3 17 Sudeste 23 Sudeste 0 -- -- 96
2020-01-19 18:00:00 11.2 17 Sudeste 22 Sudeste 0 -- -- 90
2020-01-19 17:00:00 14.5 15 Sudeste 20 Este 0 -- -- 75
2020-01-19 16:00:00 17.5 13 Sudeste 21 Este 0 -- -- 42
2020-01-19 15:00:00 18.8 8 Sudeste 17 Sudeste 0 -- -- 44
2020-01-19 14:00:00 19.9 7 Este 19 Este 0 -- -- 36
2020-01-19 13:00:00 19.9 10 Este 21 Sudeste 0 -- -- 17
2020-01-19 12:00:00 18.4 14 Sudeste 27 Sudeste 0 -- -- 27
2020-01-19 11:00:00 17.4 21 Sudeste 31 Este 0 -- -- 23
2020-01-19 10:00:00 15.8 23 Sudeste 34 Sudeste 0 -- -- 22
2020-01-19 09:00:00 14 19 Sudeste 28 Sudeste 0 -- -- 25
2020-01-19 08:00:00 12.1 19 Sudeste 31 Sudeste 0 -- -- 25
2020-01-19 07:00:00 11.7 20 Sudeste 28 Sudeste 0 -- -- 28
2020-01-19 06:00:00 11.4 19 Sudeste 27 Sudeste 0 -- -- 28
2020-01-19 05:00:00 11.5 20 Sudeste 29 Sudeste 0 -- -- 27
2020-01-19 04:00:00 11.8 23 Sudeste 31 Sudeste 0 -- -- 27
2020-01-19 03:00:00 11.6 22 Sudeste 30 Sudeste 0 -- -- 28
2020-01-19 02:00:00 11.5 22 Sudeste 35 Sudeste 0 -- -- 30
2020-01-19 01:00:00 11.7 24 Sudeste 36 Sudeste 0 -- -- 26
2020-01-19 00:00:00 12.8 23 Sudeste 35 Sudeste 0 -- -- 18
2020-01-18 23:00:00 11.8 25 Sudeste 34 Sudeste 0 -- -- 31
2020-01-18 22:00:00 12.3 24 Sudeste 32 Sudeste 0 -- -- 23
2020-01-18 21:00:00 11.9 23 Sudeste 31 Sudeste 0 -- -- 29
2020-01-18 20:00:00 11.9 23 Sudeste 33 Sudeste 0 -- -- 32
2020-01-18 19:00:00 11.9 23 Sudeste 31 Sudeste 0 -- -- 37
2020-01-18 18:00:00 12.5 23 Sudeste 31 Sudeste 0 -- -- 47
2020-01-18 17:00:00 14.9 18 Sudeste 30 Este 0 -- -- 46
2020-01-18 16:00:00 16.8 17 Sudeste 27 Sudeste 0 -- -- 46
2020-01-18 15:00:00 17.4 18 Sudeste 31 Este 0 -- -- 43
2020-01-18 14:00:00 17.3 17 Sudeste 33 Sudeste 0 -- -- 40
2020-01-18 13:00:00 17.5 23 Sudeste 39 Sudeste 0 -- -- 34
2020-01-18 12:00:00 16.6 28 Sudeste 45 Sudeste 0 -- -- 30
2020-01-18 11:00:00 16.1 33 Sudeste 48 Sudeste 0 -- -- 23
2020-01-18 10:00:00 15 33 Sudeste 47 Sudeste 0 -- -- 19
2020-01-18 09:00:00 13.3 28 Sudeste 48 Sudeste 0 -- -- 28
2020-01-18 08:00:00 12.3 32 Sudeste 55 Sudeste 0 -- -- 25
2020-01-18 07:00:00 12.4 35 Sudeste 53 Sudeste 0 -- -- 25
2020-01-18 06:00:00 12.3 32 Sudeste 51 Sudeste 0 -- -- 23
2020-01-18 05:00:00 12.2 32 Sudeste 48 Sudeste 0 -- -- 26
2020-01-18 04:00:00 12.7 31 Sudeste 45 Sudeste 0 -- -- 26
2020-01-18 03:00:00 13.1 27 Sudeste 42 Sudeste 0 -- -- 23
2020-01-18 02:00:00 13.8 27 Sudeste 41 Sudeste 0 -- -- 20
2020-01-18 01:00:00 13.9 24 Sudeste 39 Sudeste 0 -- -- 18
2020-01-18 00:00:00 13.1 20 Sudeste 33 Sudeste 0 -- -- 15
2020-01-17 23:00:00 12 23 Sudeste 30 Sudeste 0 -- -- 24
2020-01-17 22:00:00 12.2 20 Sudeste 30 Sudeste 0 -- -- 24
2020-01-17 21:00:00 12.6 21 Sudeste 35 Sudeste 0 -- -- 24
2020-01-17 20:00:00 12 24 Sudeste 32 Sudeste 0 -- -- 26
2020-01-17 19:00:00 10.8 25 Sudeste 32 Sudeste 0 -- -- 41
2020-01-17 18:00:00 11.2 18 Sudeste 26 Sudeste 0 -- -- 50
2020-01-17 17:00:00 13.6 18 Sudeste 30 Sudeste 0 -- -- 47
2020-01-17 16:00:00 15.1 20 Sudeste 29 Este 0 -- -- 49
2020-01-17 15:00:00 15.8 17 Sudeste 35 Sudeste 0 -- -- 45
2020-01-17 14:00:00 16 21 Sudeste 36 Sudeste 0 -- -- 45
2020-01-17 13:00:00 15.2 25 Sudeste 37 Sudeste 0 -- -- 41
2020-01-17 12:00:00 15.1 24 Sudeste 37 Sudeste 0 -- -- 38
2020-01-17 11:00:00 14.5 27 Sudeste 44 Sudeste 0 -- -- 37
2020-01-17 10:00:00 12.8 33 Sudeste 45 Sudeste 0 -- -- 30
2020-01-17 09:00:00 11 32 Sudeste 42 Sudeste 0 -- -- 34
2020-01-17 08:00:00 10 27 Sudeste 36 Sudeste 0 -- -- 32
2020-01-17 07:00:00 9.4 23 Sudeste 31 Sudeste 0 -- -- 33
2020-01-17 06:00:00 9.2 25 Sudeste 33 Sudeste 0 -- -- 39
2020-01-17 05:00:00 9.1 27 Sudeste 33 Sudeste 0 -- -- 37
2020-01-17 04:00:00 9.9 24 Sudeste 32 Sudeste 0 -- -- 31
2020-01-17 03:00:00 10 23 Sudeste 35 Sudeste 0 -- -- 34
2020-01-17 02:00:00 9.4 18 Sudeste 26 Sudeste 0 -- -- 41
2020-01-17 01:00:00 9.8 18 Sudeste 27 Sudeste 0 -- -- 46
2020-01-17 00:00:00 9.9 15 Sudeste 26 Sudeste 0 -- -- 49
2020-01-16 23:00:00 10.2 21 Sudeste 31 Sudeste 0 -- -- 46
2020-01-16 22:00:00 9.9 19 Sudeste 26 Sudeste 0 -- -- 41
2020-01-16 21:00:00 9.9 13 Sudeste 23 Sudeste 0 -- -- 41
2020-01-16 20:00:00 10 13 Sudeste 21 Sudeste 0 -- -- 42
2020-01-16 19:00:00 9.8 13 Sudeste 17 Este 0 -- -- 52
2020-01-16 18:00:00 11.7 14 Sudeste 22 Sudeste 0 -- -- 45
2020-01-16 17:00:00 14.9 10 Este 20 Este 0 -- -- 40
2020-01-16 16:00:00 16.5 8 Sudeste 20 Sudeste 0 -- -- 41
2020-01-16 15:00:00 16.7 8 Sudeste 19 Este 0 -- -- 47
2020-01-16 14:00:00 16 5 Noroeste 21 Norte 0 -- -- 52
2020-01-16 13:00:00 16.6 7 Noroeste 14 Norte 0 -- -- 50
2020-01-16 12:00:00 16.3 4 Nordeste 12 Este 0 -- -- 45
2020-01-16 11:00:00 15.1 4 Norte 9 Nordeste 0 -- -- 29
2020-01-16 10:00:00 12 8 Nordeste 11 Nordeste 0 -- -- 34
2020-01-16 09:00:00 11.1 4 Sur 17 Sudeste 0 -- -- 33
2020-01-16 08:00:00 9.8 12 Sudeste 22 Sudeste 0 -- -- 38
2020-01-16 07:00:00 8.2 14 Sudeste 17 Sudeste 0 -- -- 46
2020-01-16 06:00:00 8.8 6 Sur 10 Sudoeste 0 -- -- 46
2020-01-16 05:00:00 9.1 5 Oeste 9 Oeste 0 -- -- 50
2020-01-16 04:00:00 9.3 6 Noroeste 10 Sudeste 0 -- -- 51
2020-01-16 03:00:00 10 2 Sudoeste 4 Sudoeste 0 -- -- 50
2020-01-16 02:00:00 9.7 3 Noroeste 9 Noroeste 0 -- -- 59
2020-01-16 01:00:00 9.7 6 Noroeste 9 Noroeste 0 -- -- 57
2020-01-16 00:00:00 10.1 3 Sudoeste 12 Sur 0 -- -- 58
2020-01-15 23:00:00 9.7 10 Sur 21 Sudeste 0 -- -- 37
2020-01-15 22:00:00 9.8 13 Sudeste 31 Sudeste 0 -- -- 41
2020-01-15 21:00:00 9.8 15 Sudeste 29 Sudeste 0 -- -- 44
2020-01-15 20:00:00 9.2 15 Sudeste 21 Sudeste 0 -- -- 64
2020-01-15 19:00:00 9.1 12 Sudeste 17 Sudeste 0 -- -- 78
2020-01-15 18:00:00 11.1 10 Sudeste 16 Este 0 -- -- 71
2020-01-15 17:00:00 13.8 10 Sudeste 17 Sudeste 0 -- -- 59
2020-01-15 16:00:00 16.2 5 Sudeste 25 Sudeste 0 -- -- 49
2020-01-15 15:00:00 15.5 13 Este 32 Este 0 -- -- 43
2020-01-15 14:00:00 16.1 13 Sudeste 28 Este 0 -- -- 42
2020-01-15 13:00:00 15.6 18 Sudeste 32 Sudeste 0 -- -- 44
2020-01-15 12:00:00 15.1 18 Sudeste 28 Sudeste 0 -- -- 40
2020-01-15 11:00:00 14.8 13 Sudeste 22 Sudeste 0 -- -- 39
2020-01-15 10:00:00 11.5 2 Nordeste 8 Noroeste 0 -- -- 40
2020-01-15 09:00:00 10.3 4 Sudoeste 6 Oeste 0 -- -- 40
2020-01-15 08:00:00 9.9 3 Noroeste 5 Noroeste 0 -- -- 41
2020-01-15 07:00:00 9.6 2 Noroeste 5 Noroeste 0 -- -- 44
2020-01-15 06:00:00 9.5 3 Oeste 6 Oeste 0 -- -- 47
2020-01-15 05:00:00 9.6 4 Oeste 10 Oeste 0 -- -- 49
2020-01-15 04:00:00 9.1 5 Sudoeste 6 Sudoeste 0 -- -- 57
2020-01-15 03:00:00 9.7 4 Noroeste 6 Noroeste 0 -- -- 55
2020-01-15 02:00:00 9.6 4 Oeste 5 Oeste 0 -- -- 59
2020-01-15 01:00:00 8.6 2 Sudeste 4 Sudeste 0 -- -- 64
2020-01-15 00:00:00 9.5 2 Norte 8 Noroeste 0 -- -- 61
2020-01-14 23:00:00 9.2 3 Norte 8 Sudeste 0 -- -- 65
2020-01-14 22:00:00 9 8 Sudeste 9 Sudeste 0 -- -- 65
2020-01-14 21:00:00 9.7 0 Calma 8 Oeste 0 -- -- 59
2020-01-14 20:00:00 10 6 Oeste 8 Oeste 0 -- -- 68
2020-01-14 19:00:00 10 2 Norte 6 Noroeste 0 -- -- 71
2020-01-14 18:00:00 11.7 5 Noroeste 9 Noroeste 0 -- -- 62
2020-01-14 17:00:00 14.1 7 Noroeste 19 Norte 0 -- -- 59
2020-01-14 16:00:00 15.5 11 Norte 23 Noroeste 0 -- -- 50
2020-01-14 15:00:00 15.8 10 Norte 20 Norte 0 -- -- 46
2020-01-14 14:00:00 15.7 8 Norte 19 Noroeste 0 -- -- 42
2020-01-14 13:00:00 16.2 9 Norte 25 Sudeste 0 -- -- 42
2020-01-14 12:00:00 16.9 8 Sudeste 30 Sudeste 0 -- -- 36
2020-01-14 11:00:00 15.8 15 Sudeste 27 Sudeste 0 -- -- 34
2020-01-14 10:00:00 14.1 5 Este 11 Este 0 -- -- 37
2020-01-14 09:00:00 12.3 8 Sudeste 11 Este 0 -- -- 38
2020-01-14 08:00:00 10.5 0 Calma 6 Nordeste 0 -- -- 37
2020-01-14 07:00:00 10.4 0 Calma 6 Oeste 0 -- -- 37
2020-01-14 06:00:00 10.3 3 Oeste 14 Sudeste 0 -- -- 38
2020-01-14 05:00:00 10.8 4 Este 11 Sur 0 -- -- 35
2020-01-14 04:00:00 11.1 6 Sur 15 Sur 0 -- -- 35
2020-01-14 03:00:00 10.6 11 Sudeste 16 Sudeste 0 -- -- 38
2020-01-14 02:00:00 11 9 Sudeste 16 Sudeste 0 -- -- 36
2020-01-14 01:00:00 11.8 6 Sur 9 Sur 0 -- -- 34
2020-01-14 00:00:00 12.1 3 Oeste 8 Sudoeste 0 -- -- 41
2020-01-13 23:00:00 12 4 Sur 12 Sur 0 -- -- 36
2020-01-13 22:00:00 10.9 7 Sur 12 Sudeste 0 -- -- 41
2020-01-13 21:00:00 10.9 9 Sur 12 Sudeste 0 -- -- 59
2020-01-13 20:00:00 11.1 7 Sudeste 8 Sudeste 0 -- -- 76
2020-01-13 19:00:00 11.9 3 Noroeste 8 Noroeste 0 -- -- 68
2020-01-13 18:00:00 13.6 3 Noroeste 10 Noroeste 0 -- -- 67
2020-01-13 17:00:00 15.8 6 Noroeste 14 Noroeste 0 -- -- 59
2020-01-13 16:00:00 16.6 8 Noroeste 18 Noroeste 0 -- -- 54
2020-01-13 15:00:00 16.7 6 Norte 18 Norte 0 -- -- 53
2020-01-13 14:00:00 16.3 8 Norte 18 Sudeste 0 -- -- 59
2020-01-13 13:00:00 16.8 12 Sudeste 27 Sudeste 0 -- -- 52
2020-01-13 12:00:00 16.2 14 Este 26 Sudeste 0 -- -- 59
2020-01-13 11:00:00 15.9 14 Sudeste 25 Sudeste 0 -- -- 54
2020-01-13 10:00:00 14.1 18 Sudeste 31 Sudeste 0 -- -- 51
2020-01-13 09:00:00 11.8 21 Sudeste 33 Sudeste 0 -- -- 59
2020-01-13 08:00:00 9 19 Sudeste 34 Sudeste 0 -- -- 87
2020-01-13 07:00:00 9.1 24 Sudeste 33 Sudeste 0 -- -- 91
2020-01-13 06:00:00 9.5 27 Sudeste 39 Sudeste 0 -- -- 81
2020-01-13 05:00:00 9.7 27 Sudeste 44 Sudeste 0 -- -- 73
2020-01-13 04:00:00 10.2 26 Sudeste 41 Sudeste 0 -- -- 61
2020-01-13 03:00:00 9.6 22 Sudeste 38 Sudeste 0 -- -- 62
2020-01-13 02:00:00 8.3 20 Sudeste 30 Sudeste 0 -- -- 92
2020-01-13 01:00:00 8.4 19 Sudeste 34 Sudeste 0 -- -- 81
2020-01-13 00:00:00 8.9 21 Sudeste 30 Este 0 -- -- 62
2020-01-12 23:00:00 8.9 22 Sudeste 32 Sudeste 0 -- -- 65
2020-01-12 22:00:00 9.3 22 Sudeste 35 Sudeste 0 -- -- 51
2020-01-12 21:00:00 9.6 26 Sudeste 36 Sudeste 0 -- -- 54
2020-01-12 20:00:00 8.8 18 Sudeste 25 Sudeste 0 -- -- 73
2020-01-12 19:00:00 9.7 11 Sudeste 25 Sudeste 0 -- -- 52
2020-01-12 18:00:00 9.6 13 Sudeste 23 Sudeste 0 -- -- 83
2020-01-12 17:00:00 12 17 Sudeste 34 Este 0 -- -- 71
2020-01-12 16:00:00 12.6 25 Sudeste 42 Este 0 -- -- 66
2020-01-12 15:00:00 12.8 25 Sudeste 48 Sudeste 0 -- -- 71
2020-01-12 14:00:00 12 30 Sudeste 43 Este 0 -- -- 86
2020-01-12 13:00:00 11.7 22 Sudeste 38 Sudeste 0 -- -- 88
2020-01-12 12:00:00 11.4 16 Sudeste 31 Este 0 -- -- 82
2020-01-12 11:00:00 10 16 Sudeste 26 Sudeste 0 -- -- 94
2020-01-12 10:00:00 9.7 14 Sudeste 21 Sur 0 -- -- 91
2020-01-12 09:00:00 9 10 Sudeste 18 Sudeste 0 -- -- 97
2020-01-12 08:00:00 8.6 10 Sudeste 17 Este 0 -- -- 100
2020-01-12 07:00:00 8.9 9 Sudeste 17 Este 0 -- -- 100
2020-01-12 06:00:00 9.2 8 Este 21 Este 0 -- -- 100
2020-01-12 05:00:00 9.3 7 Este 19 Este 0.2 -- -- 100
2020-01-12 04:00:00 9.2 4 Este 14 Nordeste 0 -- -- 99
2020-01-12 03:00:00 9.1 8 Nordeste 15 Norte 0 -- -- 99
2020-01-12 02:00:00 9.2 5 Nordeste 18 Norte 0.2 -- -- 99
2020-01-12 01:00:00 9.3 6 Norte 16 Nordeste 0.2 -- -- 99
2020-01-12 00:00:00 9 3 Norte 18 Nordeste 0 -- -- 99
2020-01-11 23:00:00 9.4 7 Norte 21 Norte 0.2 -- -- 99
2020-01-11 22:00:00 9.5 8 Norte 24 Norte 0.4 -- -- 100
2020-01-11 21:00:00 9.4 5 Nordeste 17 Nordeste 0.4 -- -- 99
2020-01-11 20:00:00 8.7 4 Nordeste 15 Nordeste 0 -- -- 99
2020-01-11 19:00:00 9 6 Norte 20 Norte 0.2 -- -- 99
2020-01-11 18:00:00 9.5 9 Norte 26 Nordeste 0.4 -- -- 99
2020-01-11 17:00:00 9.9 10 Norte 21 Norte 0.8 -- -- 98
2020-01-11 16:00:00 10.1 8 Nordeste 19 Norte 0.2 -- -- 98
2020-01-11 15:00:00 11.3 6 Norte 19 Norte 0 -- -- 91
2020-01-11 14:00:00 10.9 9 Norte 22 Norte 0.2 -- -- 95
2020-01-11 13:00:00 11.3 2 Nordeste 9 Norte 0 -- -- 94
2020-01-11 12:00:00 11.1 6 Norte 17 Norte 0 -- -- 91
2020-01-11 11:00:00 10.8 4 Norte 12 Norte 0.2 -- -- 96
2020-01-11 10:00:00 10 3 Nordeste 12 Sur 0 -- -- 93
2020-01-11 09:00:00 9.5 3 Nordeste 10 Nordeste 0 -- -- 93
2020-01-11 08:00:00 9 5 Norte 13 Norte 0 -- -- 97
2020-01-11 07:00:00 9.1 2 Sudeste 11 Nordeste 0 -- -- 97
2020-01-11 06:00:00 9.2 4 Norte 14 Norte 0 -- -- 98
2020-01-11 05:00:00 9.4 3 Norte 16 Nordeste 0 -- -- 98
2020-01-11 04:00:00 9.7 9 Nordeste 21 Nordeste 0 -- -- 99
2020-01-11 03:00:00 9.8 5 Sudeste 13 Sudeste 0 -- -- 99
2020-01-11 02:00:00 10 5 Nordeste 16 Norte 0 -- -- 99
2020-01-11 01:00:00 10.5 4 Nordeste 16 Norte 0.4 -- -- 99
2020-01-11 00:00:00 10.6 7 Nordeste 18 Sur 0.4 -- -- 98
2020-01-10 23:00:00 10.5 5 Sudeste 13 Sudeste 0 -- -- 98
2020-01-10 22:00:00 10.4 5 Nordeste 25 Nordeste 0 -- -- 98
2020-01-10 21:00:00 10.3 0 Calma 13 Este 0 -- -- 96
2020-01-10 20:00:00 10 5 Sudeste 19 Nordeste 0 -- -- 95
2020-01-10 19:00:00 9.8 7 Nordeste 23 Nordeste 0 -- -- 98
2020-01-10 18:00:00 10.3 6 Este 24 Nordeste 0 -- -- 99
2020-01-10 17:00:00 10.7 6 Nordeste 28 Nordeste 0.4 -- -- 99
2020-01-10 16:00:00 11 5 Este 22 Sudeste 0.4 -- -- 99
2020-01-10 15:00:00 11.1 11 Nordeste 26 Nordeste 0 -- -- 98
2020-01-10 14:00:00 11.4 7 Nordeste 32 Este 0.2 -- -- 99
2020-01-10 13:00:00 11 12 Nordeste 38 Norte 0.4 -- -- 100
2020-01-10 12:00:00 10.9 18 Nordeste 36 Norte 0.4 -- -- 100
2020-01-10 11:00:00 11.2 10 Nordeste 28 Nordeste 1.4 -- -- 100
2020-01-10 10:00:00 11.2 14 Nordeste 32 Norte 2.6 -- -- 100
2020-01-10 09:00:00 11.1 8 Este 25 Nordeste 1 -- -- 100
2020-01-10 08:00:00 10.7 3 Sudeste 21 Norte 1 -- -- 99
2020-01-10 07:00:00 10.7 6 Norte 25 Nordeste 0.8 -- -- 100
2020-01-10 06:00:00 10.2 4 Este 16 Norte 0.4 -- -- 99
2020-01-10 05:00:00 10.2 8 Nordeste 23 Nordeste 0 -- -- 99
2020-01-10 04:00:00 10.1 12 Nordeste 36 Nordeste 0.2 -- -- 98
2020-01-10 03:00:00 10.1 9 Nordeste 32 Norte 0.2 -- -- 99
2020-01-10 02:00:00 10.2 8 Norte 16 Norte 0.2 -- -- 96
2020-01-10 01:00:00 9.7 3 Sudeste 13 Este 0 -- -- 95
2020-01-10 00:00:00 9.7 6 Nordeste 19 Nordeste 0 -- -- 93
2020-01-09 23:00:00 9.6 8 Nordeste 23 Norte 0 -- -- 96
2020-01-09 22:00:00 9.8 11 Nordeste 24 Nordeste 0.2 -- -- 97
2020-01-09 21:00:00 9.3 6 Norte 27 Norte 0 -- -- 97
2020-01-09 20:00:00 9.9 14 Norte 28 Norte 0.2 -- -- 98
2020-01-09 19:00:00 10.2 11 Norte 26 Norte 0 -- -- 97
2020-01-09 18:00:00 10.4 8 Norte 24 Norte 0 -- -- 96
2020-01-09 17:00:00 11.4 7 Norte 23 Norte 0 -- -- 89
2020-01-09 16:00:00 11.5 9 Norte 23 Norte 0 -- -- 83
2020-01-09 15:00:00 12.3 8 Norte 20 Norte 0 -- -- 83
2020-01-09 14:00:00 12.2 11 Norte 27 Norte 0 -- -- 84
2020-01-09 13:00:00 12 8 Norte 20 Norte 0 -- -- 83
2020-01-09 12:00:00 11.6 10 Norte 22 Norte 0 -- -- 86
2020-01-09 11:00:00 10.3 9 Norte 23 Norte 0.2 -- -- 94
2020-01-09 10:00:00 10.4 4 Norte 18 Norte 0 -- -- 93
2020-01-09 09:00:00 9.9 7 Norte 18 Nordeste 0 -- -- 95
2020-01-09 08:00:00 9.3 8 Norte 23 Noroeste 0 -- -- 95
2020-01-09 07:00:00 9.2 7 Norte 16 Norte 0 -- -- 97
2020-01-09 06:00:00 9.4 6 Norte 22 Norte 0 -- -- 97
2020-01-09 05:00:00 9.3 8 Nordeste 16 Nordeste 0 -- -- 97
2020-01-09 04:00:00 9.1 6 Nordeste 14 Nordeste 0 -- -- 98
2020-01-09 03:00:00 9.2 5 Este 18 Nordeste 0 -- -- 98
2020-01-09 02:00:00 9.4 4 Nordeste 18 Nordeste 0 -- -- 97
2020-01-09 01:00:00 9.6 10 Nordeste 26 Nordeste 0 -- -- 98
2020-01-09 00:00:00 9.4 12 Nordeste 27 Norte 0 -- -- 97
2020-01-08 23:00:00 9.6 10 Norte 30 Norte 0 -- -- 97
2020-01-08 22:00:00 9.2 6 Nordeste 17 Nordeste 0 -- -- 97
2020-01-08 21:00:00 9.5 6 Norte 19 Norte 0 -- -- 97
2020-01-08 20:00:00 9.6 5 Norte 23 Norte 0 -- -- 97
2020-01-08 19:00:00 9.8 10 Norte 24 Norte 0.2 -- -- 97
2020-01-08 18:00:00 10.3 6 Norte 22 Nordeste 0 -- -- 95
2020-01-08 17:00:00 11.4 6 Norte 15 Noroeste 0 -- -- 86
2020-01-08 16:00:00 13.5 7 Norte 20 Noroeste 0 -- -- 74
2020-01-08 15:00:00 12.9 7 Norte 19 Norte 0 -- -- 75
2020-01-08 14:00:00 11.9 7 Nordeste 18 Nordeste 0 -- -- 84
2020-01-08 13:00:00 11.1 10 Nordeste 21 Nordeste 0 -- -- 92
2020-01-08 12:00:00 10.4 6 Nordeste 27 Este 0.2 -- -- 98
2020-01-08 11:00:00 10.6 8 Nordeste 23 Sudeste 0 -- -- 98
2020-01-08 10:00:00 9.8 8 Nordeste 18 Nordeste 0.6 -- -- 99
2020-01-08 09:00:00 9.6 11 Este 21 Este 0 -- -- 99
2020-01-08 08:00:00 9.4 9 Este 20 Este 0 -- -- 99
2020-01-08 07:00:00 9.2 9 Este 20 Este 0 -- -- 99
2020-01-08 06:00:00 9.3 7 Este 22 Nordeste 0 -- -- 99
2020-01-08 05:00:00 9.4 10 Nordeste 25 Norte 0 -- -- 99
2020-01-08 04:00:00 9.4 6 Nordeste 29 Este 0 -- -- 98
2020-01-08 03:00:00 9.5 8 Este 21 Este 0 -- -- 98
2020-01-08 02:00:00 9.6 7 Este 21 Este 0 -- -- 98
2020-01-08 01:00:00 9.7 10 Nordeste 28 Norte 0 -- -- 97
2020-01-08 00:00:00 9.5 5 Nordeste 25 Norte 0 -- -- 96
2020-01-07 23:00:00 9.8 9 Nordeste 26 Este 0 -- -- 96
2020-01-07 22:00:00 10.1 10 Nordeste 27 Nordeste 0 -- -- 96
2020-01-07 21:00:00 10.2 9 Este 24 Nordeste 0 -- -- 96
2020-01-07 20:00:00 10.4 7 Este 21 Nordeste 0 -- -- 96
2020-01-07 19:00:00 10.3 8 Este 17 Este 0 -- -- 93
2020-01-07 18:00:00 10.8 6 Este 14 Este 0 -- -- 79
2020-01-07 17:00:00 13.3 6 Sudeste 21 Este 0 -- -- 63
2020-01-07 16:00:00 14.2 10 Este 23 Este 0 -- -- 64
2020-01-07 15:00:00 13.3 13 Este 27 Este 0 -- -- 57
2020-01-07 14:00:00 11.7 14 Este 25 Sudeste 0 -- -- 77
2020-01-07 13:00:00 11.7 14 Este 27 Este 0 -- -- 80
2020-01-07 12:00:00 10.5 12 Este 25 Este 0 -- -- 92
2020-01-07 11:00:00 10.3 10 Este 31 Este 0 -- -- 97
2020-01-07 10:00:00 9.3 11 Este 31 Este 0 -- -- 100
2020-01-07 09:00:00 8.9 14 Este 35 Este 0 -- -- 100
2020-01-07 08:00:00 8.9 11 Este 28 Sudeste 0 -- -- 100
2020-01-07 07:00:00 9 15 Este 27 Sudeste 0.2 -- -- 99
2020-01-07 06:00:00 9.4 11 Este 25 Este 0 -- -- 99
2020-01-07 05:00:00 9.5 8 Nordeste 23 Este 0.4 -- -- 99
2020-01-07 04:00:00 9.1 7 Este 27 Norte 0 -- -- 99
2020-01-07 03:00:00 9.4 10 Nordeste 35 Nordeste 0 -- -- 99
2020-01-07 02:00:00 9.7 10 Norte 32 Norte 0.4 -- -- 99
2020-01-07 01:00:00 9.7 10 Norte 32 Nordeste 0 -- -- 99
2020-01-07 00:00:00 9.4 6 Nordeste 34 Nordeste 0 -- -- 98
2020-01-06 23:00:00 9.5 12 Norte 32 Norte 0 -- -- 99
2020-01-06 22:00:00 9.4 13 Norte 40 Norte 0 -- -- 99
2020-01-06 21:00:00 10.1 18 Norte 40 Norte 0.2 -- -- 98
2020-01-06 20:00:00 10.4 16 Noroeste 33 Noroeste 0 -- -- 98
2020-01-06 19:00:00 10.3 12 Norte 27 Noroeste 0 -- -- 96
2020-01-06 18:00:00 10.4 12 Noroeste 27 Noroeste 0 -- -- 94
2020-01-06 17:00:00 11 11 Norte 24 Norte 0 -- -- 89
2020-01-06 16:00:00 11.7 12 Norte 24 Norte 0 -- -- 87
2020-01-06 15:00:00 12.4 12 Norte 23 Norte 0 -- -- 82
2020-01-06 14:00:00 12.3 11 Norte 23 Noroeste 0 -- -- 81
2020-01-06 13:00:00 12.7 9 Norte 25 Norte 0 -- -- 82
2020-01-06 12:00:00 12 12 Norte 26 Norte 0 -- -- 82
2020-01-06 11:00:00 12.6 7 Norte 24 Norte 0 -- -- 78
2020-01-06 10:00:00 10.5 10 Norte 21 Norte 0 -- -- 93
2020-01-06 09:00:00 10.1 5 Norte 22 Norte 0.2 -- -- 94